ANA593 RJFK-RJNS
Flight info
| Callsign | ANA593 |
|---|---|
| Flight time | 1h 8m |
| Altitude | 37000 |
| Route | MIDAI M750 MUKEP Y891 OVSUN/N0459F360 Y893 IGMIS Y57 MOSLO |
| Aircraft | B772/H-SDE2E3FGHIJ5LORVWXY/LB1D1 |
Departure
| Time | 2026-05-03 22:00 |
|---|---|
| Airport | Kagoshima Airport (RJFK) |
Arrival
| Time | 2026-05-03 23:08 |
|---|---|
| Airport | Mount Fuji Shizuoka Airport (RJNS) |
| Time | Latitude | Longitude | Altitude | Speed | Heading |
|---|---|---|---|---|---|
| 2026-05-03 21:30 | 31.80215 | 130.71628 | 903 ft | 0 kts | 240° |
| 2026-05-03 21:51 | 31.80218 | 130.71635 | 903 ft | 2 kts | 241° |
| 2026-05-03 21:51 | 31.80226 | 130.71651 | 902 ft | 2 kts | 240° |
| 2026-05-03 21:52 | 31.80233 | 130.71666 | 902 ft | 2 kts | 240° |
| 2026-05-03 21:52 | 31.80240 | 130.71680 | 902 ft | 0 kts | 240° |
| 2026-05-03 21:52 | 31.80246 | 130.71692 | 902 ft | 2 kts | 233° |
| 2026-05-03 21:52 | 31.80256 | 130.71706 | 902 ft | 2 kts | 219° |
| 2026-05-03 21:53 | 31.80269 | 130.71715 | 902 ft | 2 kts | 208° |
| 2026-05-03 21:53 | 31.80283 | 130.71722 | 902 ft | 2 kts | 196° |
| 2026-05-03 21:53 | 31.80297 | 130.71725 | 902 ft | 2 kts | 185° |
| 2026-05-03 21:53 | 31.80313 | 130.71725 | 902 ft | 2 kts | 173° |
| 2026-05-03 21:54 | 31.80328 | 130.71722 | 902 ft | 2 kts | 161° |
| 2026-05-03 21:54 | 31.80340 | 130.71716 | 902 ft | 0 kts | 151° |
| 2026-05-03 21:54 | 31.80342 | 130.71715 | 902 ft | 0 kts | 150° |
| 2026-05-03 21:55 | 31.80341 | 130.71716 | 902 ft | 0 kts | 150° |
| 2026-05-03 21:56 | 31.80338 | 130.71718 | 902 ft | 2 kts | 150° |
| 2026-05-03 21:56 | 31.80301 | 130.71742 | 902 ft | 9 kts | 150° |
| 2026-05-03 21:56 | 31.80225 | 130.71794 | 902 ft | 14 kts | 150° |
| 2026-05-03 21:56 | 31.80127 | 130.71860 | 901 ft | 18 kts | 150° |
| 2026-05-03 21:57 | 31.80001 | 130.71944 | 896 ft | 23 kts | 151° |
| 2026-05-03 21:57 | 31.79847 | 130.72043 | 894 ft | 26 kts | 152° |
| 2026-05-03 21:57 | 31.79672 | 130.72165 | 889 ft | 30 kts | 147° |
| 2026-05-03 21:57 | 31.79466 | 130.72307 | 879 ft | 36 kts | 151° |
| 2026-05-03 21:58 | 31.79234 | 130.72461 | 872 ft | 39 kts | 150° |
| 2026-05-03 21:58 | 31.79126 | 130.72624 | 866 ft | 16 kts | 65° |
| 2026-05-03 21:58 | 31.79207 | 130.72707 | 866 ft | 15 kts | 334° |
| 2026-05-03 21:58 | 31.79246 | 130.72679 | 867 ft | 4 kts | 329° |
| 2026-05-03 21:59 | 31.79261 | 130.72669 | 868 ft | 0 kts | 329° |
| 2026-05-03 21:59 | 31.79267 | 130.72664 | 868 ft | 7 kts | 329° |
| 2026-05-03 21:59 | 31.79557 | 130.72467 | 877 ft | 90 kts | 330° |
| 2026-05-03 22:00 | 31.80216 | 130.72021 | 910 ft | 146 kts | 329° |
| 2026-05-03 22:00 | 31.81127 | 130.71414 | 1468 ft | 150 kts | 327° |
| 2026-05-03 22:00 | 31.82055 | 130.70755 | 2393 ft | 149 kts | 329° |
| 2026-05-03 22:00 | 31.83020 | 130.70529 | 2866 ft | 149 kts | 354° |
| 2026-05-03 22:01 | 31.84129 | 130.70844 | 3001 ft | 173 kts | 19° |
| 2026-05-03 22:01 | 31.85073 | 130.71777 | 3462 ft | 179 kts | 46° |
| 2026-05-03 22:01 | 31.85594 | 130.73210 | 3701 ft | 197 kts | 77° |
| 2026-05-03 22:01 | 31.85473 | 130.74855 | 3985 ft | 206 kts | 101° |
| 2026-05-03 22:02 | 31.85077 | 130.76607 | 4121 ft | 228 kts | 104° |
| 2026-05-03 22:02 | 31.84629 | 130.78503 | 4426 ft | 248 kts | 104° |
| 2026-05-03 22:02 | 31.84037 | 130.80518 | 4789 ft | 266 kts | 121° |
| 2026-05-03 22:02 | 31.82729 | 130.82175 | 5062 ft | 283 kts | 148° |
| 2026-05-03 22:03 | 31.80971 | 130.83472 | 5482 ft | 299 kts | 154° |
| 2026-05-03 22:03 | 31.79155 | 130.84738 | 6272 ft | 301 kts | 154° |
| 2026-05-03 22:03 | 31.77333 | 130.86032 | 7050 ft | 304 kts | 155° |
| 2026-05-03 22:03 | 31.75481 | 130.87361 | 7784 ft | 308 kts | 155° |
| 2026-05-03 22:04 | 31.73614 | 130.88707 | 8591 ft | 309 kts | 156° |
| 2026-05-03 22:04 | 31.71760 | 130.90044 | 9420 ft | 309 kts | 158° |
| 2026-05-03 22:04 | 31.70193 | 130.91171 | 10020 ft | 311 kts | 158° |
| 2026-05-03 22:04 | 31.68420 | 130.92441 | 10504 ft | 323 kts | 159° |
| 2026-05-03 22:05 | 31.66416 | 130.93877 | 10919 ft | 341 kts | 157° |
| 2026-05-03 22:05 | 31.64425 | 130.95717 | 11337 ft | 371 kts | 143° |
| 2026-05-03 22:05 | 31.62743 | 130.98177 | 11879 ft | 396 kts | 130° |
| 2026-05-03 22:05 | 31.61423 | 131.01181 | 12482 ft | 420 kts | 118° |
| 2026-05-03 22:06 | 31.60607 | 131.04605 | 13100 ft | 443 kts | 104° |
| 2026-05-03 22:06 | 31.60430 | 131.08301 | 14005 ft | 456 kts | 92° |
| 2026-05-03 22:06 | 31.60558 | 131.12041 | 14973 ft | 462 kts | 91° |
| 2026-05-03 22:06 | 31.60653 | 131.15894 | 16011 ft | 465 kts | 93° |
| 2026-05-03 22:07 | 31.60693 | 131.19737 | 16903 ft | 471 kts | 94° |
| 2026-05-03 22:07 | 31.60689 | 131.23680 | 17663 ft | 479 kts | 95° |
| 2026-05-03 22:07 | 31.60653 | 131.27626 | 18476 ft | 485 kts | 95° |
| 2026-05-03 22:07 | 31.60673 | 131.31688 | 19290 ft | 493 kts | 90° |
| 2026-05-03 22:08 | 31.61152 | 131.35684 | 20062 ft | 502 kts | 80° |
| 2026-05-03 22:08 | 31.62184 | 131.39705 | 20870 ft | 509 kts | 70° |
| 2026-05-03 22:08 | 31.63715 | 131.43484 | 21550 ft | 516 kts | 60° |
| 2026-05-03 22:08 | 31.65588 | 131.47145 | 22271 ft | 521 kts | 57° |
| 2026-05-03 22:09 | 31.67545 | 131.50884 | 22990 ft | 526 kts | 58° |
| 2026-05-03 22:09 | 31.69465 | 131.54573 | 23672 ft | 531 kts | 58° |
| 2026-05-03 22:09 | 31.71416 | 131.58340 | 24318 ft | 537 kts | 58° |
| 2026-05-03 22:10 | 31.75355 | 131.66000 | 25651 ft | 548 kts | 58° |
| 2026-05-03 22:10 | 31.77342 | 131.69885 | 26262 ft | 555 kts | 59° |
| 2026-05-03 22:10 | 31.79374 | 131.73866 | 26844 ft | 562 kts | 59° |
| 2026-05-03 22:10 | 31.81441 | 131.77925 | 27498 ft | 567 kts | 59° |
| 2026-05-03 22:11 | 31.83467 | 131.81911 | 28176 ft | 572 kts | 59° |
| 2026-05-03 22:11 | 31.85549 | 131.86014 | 28798 ft | 577 kts | 59° |
| 2026-05-03 22:11 | 31.87655 | 131.90167 | 29490 ft | 582 kts | 59° |
| 2026-05-03 22:11 | 31.89722 | 131.94253 | 30441 ft | 580 kts | 58° |
| 2026-05-03 22:12 | 31.91806 | 131.98377 | 31481 ft | 576 kts | 58° |
| 2026-05-03 22:12 | 31.93876 | 132.02478 | 32376 ft | 575 kts | 58° |
| 2026-05-03 22:12 | 31.95938 | 132.06567 | 33263 ft | 573 kts | 58° |
| 2026-05-03 22:12 | 31.97997 | 132.10657 | 34269 ft | 571 kts | 58° |
| 2026-05-03 22:13 | 32.00034 | 132.14708 | 35338 ft | 566 kts | 57° |
| 2026-05-03 22:13 | 32.02050 | 132.18721 | 36406 ft | 560 kts | 58° |
| 2026-05-03 22:13 | 32.04076 | 132.22755 | 36857 ft | 565 kts | 58° |
| 2026-05-03 22:14 | 32.08155 | 132.30894 | 36860 ft | 565 kts | 58° |
| 2026-05-03 22:14 | 32.10183 | 132.34947 | 37146 ft | 572 kts | 58° |
| 2026-05-03 22:14 | 32.11333 | 132.37248 | 37573 ft | 571 kts | 57° |
| 2026-05-03 22:14 | 32.13398 | 132.41422 | 38540 ft | 566 kts | 60° |
| 2026-05-03 22:15 | 32.15226 | 132.45631 | 39360 ft | 562 kts | 63° |
| 2026-05-03 22:15 | 32.16974 | 132.49823 | 39948 ft | 561 kts | 63° |
| 2026-05-03 22:15 | 32.18703 | 132.53969 | 40371 ft | 562 kts | 63° |
| 2026-05-03 22:15 | 32.20393 | 132.58011 | 40792 ft | 563 kts | 63° |
| 2026-05-03 22:16 | 32.22150 | 132.62205 | 40860 ft | 567 kts | 63° |
| 2026-05-03 22:16 | 32.25686 | 132.70631 | 40840 ft | 561 kts | 63° |
| 2026-05-03 22:17 | 32.29185 | 132.78966 | 40848 ft | 561 kts | 63° |
| 2026-05-03 22:17 | 32.32701 | 132.87349 | 40841 ft | 561 kts | 63° |
| 2026-05-03 22:18 | 32.36207 | 132.95718 | 40836 ft | 560 kts | 63° |
| 2026-05-03 22:18 | 32.39680 | 133.04025 | 40833 ft | 560 kts | 63° |
| 2026-05-03 22:19 | 32.43197 | 133.12454 | 40836 ft | 560 kts | 63° |
| 2026-05-03 22:19 | 32.46668 | 133.20790 | 40837 ft | 559 kts | 63° |
| 2026-05-03 22:20 | 32.50156 | 133.29187 | 40832 ft | 559 kts | 64° |
| 2026-05-03 22:20 | 32.53616 | 133.37538 | 40835 ft | 559 kts | 63° |
| 2026-05-03 22:21 | 32.57075 | 133.45905 | 40833 ft | 558 kts | 64° |
| 2026-05-03 22:21 | 32.60522 | 133.54257 | 40829 ft | 560 kts | 64° |
| 2026-05-03 22:22 | 32.63995 | 133.62695 | 40823 ft | 559 kts | 64° |
| 2026-05-03 22:22 | 32.67423 | 133.71043 | 40804 ft | 558 kts | 65° |
| 2026-05-03 22:23 | 32.70875 | 133.79469 | 40804 ft | 559 kts | 65° |
| 2026-05-03 22:23 | 32.74324 | 133.87909 | 40800 ft | 557 kts | 65° |
| 2026-05-03 22:24 | 32.77736 | 133.96277 | 40795 ft | 559 kts | 65° |
| 2026-05-03 22:24 | 32.80732 | 134.03642 | 40799 ft | 558 kts | 65° |
| 2026-05-03 22:25 | 32.83488 | 134.12357 | 40803 ft | 557 kts | 76° |
| 2026-05-03 22:25 | 32.85736 | 134.21338 | 40801 ft | 556 kts | 76° |
| 2026-05-03 22:26 | 32.87946 | 134.30222 | 40794 ft | 556 kts | 76° |
| 2026-05-03 22:26 | 32.90166 | 134.39166 | 40796 ft | 554 kts | 76° |
| 2026-05-03 22:27 | 32.92373 | 134.48093 | 40795 ft | 556 kts | 76° |
| 2026-05-03 22:27 | 32.94569 | 134.57002 | 40790 ft | 557 kts | 76° |
| 2026-05-03 22:28 | 32.96778 | 134.65988 | 40788 ft | 556 kts | 76° |
| 2026-05-03 22:28 | 32.98972 | 134.74948 | 40775 ft | 554 kts | 77° |
| 2026-05-03 22:29 | 33.00540 | 134.83981 | 40782 ft | 555 kts | 87° |
| 2026-05-03 22:29 | 33.01554 | 134.93192 | 40776 ft | 550 kts | 87° |
| 2026-05-03 22:30 | 33.02544 | 135.02338 | 40774 ft | 549 kts | 87° |
| 2026-05-03 22:30 | 33.03534 | 135.11530 | 40770 ft | 552 kts | 87° |
| 2026-05-03 22:31 | 33.04511 | 135.20662 | 40769 ft | 550 kts | 86° |
| 2026-05-03 22:31 | 33.05486 | 135.29843 | 40771 ft | 551 kts | 86° |
| 2026-05-03 22:32 | 33.06458 | 135.39052 | 40764 ft | 550 kts | 87° |
| 2026-05-03 22:32 | 33.07415 | 135.48183 | 40768 ft | 548 kts | 87° |
| 2026-05-03 22:33 | 33.08363 | 135.57303 | 40765 ft | 550 kts | 86° |
| 2026-05-03 22:33 | 33.09312 | 135.66490 | 40759 ft | 549 kts | 87° |
| 2026-05-03 22:34 | 33.10249 | 135.75626 | 40733 ft | 548 kts | 88° |
| 2026-05-03 22:34 | 33.11029 | 135.83298 | 40737 ft | 547 kts | 87° |
| 2026-05-03 22:35 | 33.11953 | 135.92427 | 40736 ft | 547 kts | 87° |
| 2026-05-03 22:35 | 33.12869 | 136.01561 | 40740 ft | 547 kts | 87° |
| 2026-05-03 22:36 | 33.13779 | 136.10690 | 40736 ft | 546 kts | 87° |
| 2026-05-03 22:36 | 33.14680 | 136.19814 | 40736 ft | 549 kts | 88° |
| 2026-05-03 22:37 | 33.15575 | 136.28925 | 40736 ft | 546 kts | 88° |
| 2026-05-03 22:37 | 33.16463 | 136.38048 | 40731 ft | 547 kts | 87° |
| 2026-05-03 22:38 | 33.17342 | 136.47150 | 40733 ft | 546 kts | 88° |
| 2026-05-03 22:38 | 33.18221 | 136.56319 | 40732 ft | 547 kts | 87° |
| 2026-05-03 22:39 | 33.19087 | 136.65434 | 40732 ft | 548 kts | 88° |
| 2026-05-03 22:39 | 33.19946 | 136.74525 | 40713 ft | 542 kts | 88° |
| 2026-05-03 22:40 | 33.20802 | 136.83691 | 40722 ft | 547 kts | 88° |
| 2026-05-03 22:40 | 33.21649 | 136.92815 | 40729 ft | 543 kts | 88° |
| 2026-05-03 22:41 | 33.22483 | 137.01863 | 40723 ft | 544 kts | 88° |
| 2026-05-03 22:41 | 33.23551 | 137.10919 | 40711 ft | 548 kts | 79° |
| 2026-05-03 22:42 | 33.25509 | 137.19009 | 40743 ft | 549 kts | 76° |
| 2026-05-03 22:42 | 33.27720 | 137.27809 | 40738 ft | 550 kts | 75° |
| 2026-05-03 22:43 | 33.29948 | 137.36717 | 40720 ft | 548 kts | 75° |
| 2026-05-03 22:43 | 33.31044 | 137.41115 | 40062 ft | 546 kts | 75° |
| 2026-05-03 22:43 | 33.32133 | 137.45499 | 39156 ft | 548 kts | 76° |
| 2026-05-03 22:43 | 33.33223 | 137.49892 | 38484 ft | 547 kts | 76° |
| 2026-05-03 22:44 | 33.34313 | 137.54294 | 37799 ft | 546 kts | 76° |
| 2026-05-03 22:44 | 33.35140 | 137.57640 | 37266 ft | 545 kts | 75° |
| 2026-05-03 22:44 | 33.36233 | 137.62068 | 36555 ft | 545 kts | 75° |
| 2026-05-03 22:44 | 33.37289 | 137.66354 | 35849 ft | 544 kts | 76° |
| 2026-05-03 22:45 | 33.38377 | 137.70778 | 35120 ft | 543 kts | 76° |
| 2026-05-03 22:45 | 33.39463 | 137.75201 | 34389 ft | 541 kts | 76° |
| 2026-05-03 22:45 | 33.40535 | 137.79576 | 33629 ft | 541 kts | 76° |
| 2026-05-03 22:45 | 33.41615 | 137.83998 | 32874 ft | 557 kts | 76° |
| 2026-05-03 22:46 | 33.42759 | 137.88527 | 32071 ft | 570 kts | 72° |
| 2026-05-03 22:46 | 33.44313 | 137.92929 | 31232 ft | 571 kts | 64° |
| 2026-05-03 22:46 | 33.46307 | 137.97061 | 30399 ft | 569 kts | 56° |
| 2026-05-03 22:46 | 33.48745 | 138.00876 | 29890 ft | 558 kts | 47° |
| 2026-05-03 22:47 | 33.51470 | 138.04120 | 29418 ft | 546 kts | 38° |
| 2026-05-03 22:47 | 33.54498 | 138.06868 | 28896 ft | 533 kts | 29° |
| 2026-05-03 22:47 | 33.57755 | 138.09082 | 28359 ft | 521 kts | 20° |
| 2026-05-03 22:47 | 33.61125 | 138.10727 | 27784 ft | 509 kts | 12° |
| 2026-05-03 22:48 | 33.64581 | 138.11821 | 27247 ft | 510 kts | 4° |
| 2026-05-03 22:48 | 33.68171 | 138.12427 | 26698 ft | 515 kts | 359° |
| 2026-05-03 22:48 | 33.71753 | 138.12888 | 26119 ft | 512 kts | 359° |
| 2026-05-03 22:48 | 33.75325 | 138.13348 | 25554 ft | 504 kts | 359° |
| 2026-05-03 22:49 | 33.78833 | 138.13811 | 25008 ft | 497 kts | 359° |
| 2026-05-03 22:49 | 33.82275 | 138.14273 | 24473 ft | 490 kts | 359° |
| 2026-05-03 22:49 | 33.85720 | 138.14740 | 23925 ft | 483 kts | 359° |
| 2026-05-03 22:49 | 33.89038 | 138.15195 | 23406 ft | 478 kts | 359° |
| 2026-05-03 22:50 | 33.92363 | 138.15654 | 22875 ft | 472 kts | 359° |
| 2026-05-03 22:50 | 33.95644 | 138.16109 | 22332 ft | 467 kts | 359° |
| 2026-05-03 22:50 | 33.98882 | 138.16560 | 21814 ft | 462 kts | 359° |
| 2026-05-03 22:50 | 34.02118 | 138.17013 | 21269 ft | 458 kts | 359° |
| 2026-05-03 22:51 | 34.05277 | 138.17456 | 20718 ft | 453 kts | 358° |
| 2026-05-03 22:51 | 34.08447 | 138.17903 | 20166 ft | 449 kts | 358° |
| 2026-05-03 22:51 | 34.11571 | 138.18343 | 19612 ft | 445 kts | 358° |
| 2026-05-03 22:51 | 34.14682 | 138.18939 | 19038 ft | 447 kts | 6° |
| 2026-05-03 22:52 | 34.17690 | 138.20134 | 18483 ft | 452 kts | 17° |
| 2026-05-03 22:52 | 34.20480 | 138.21921 | 17915 ft | 455 kts | 28° |
| 2026-05-03 22:52 | 34.22946 | 138.24205 | 17387 ft | 456 kts | 39° |
| 2026-05-03 22:52 | 34.25182 | 138.27074 | 16781 ft | 471 kts | 50° |
| 2026-05-03 22:53 | 34.27014 | 138.30383 | 16122 ft | 470 kts | 61° |
| 2026-05-03 22:53 | 34.28350 | 138.34007 | 15486 ft | 463 kts | 72° |
| 2026-05-03 22:53 | 34.29281 | 138.37784 | 14916 ft | 459 kts | 76° |
| 2026-05-03 22:53 | 34.30136 | 138.41490 | 14375 ft | 453 kts | 76° |
| 2026-05-03 22:54 | 34.30994 | 138.45165 | 13814 ft | 449 kts | 76° |
| 2026-05-03 22:54 | 34.31679 | 138.48070 | 13338 ft | 446 kts | 75° |
| 2026-05-03 22:54 | 34.32536 | 138.51672 | 12759 ft | 441 kts | 76° |
| 2026-05-03 22:54 | 34.33394 | 138.55250 | 12304 ft | 433 kts | 76° |
| 2026-05-03 22:55 | 34.34250 | 138.58803 | 11867 ft | 432 kts | 75° |
| 2026-05-03 22:55 | 34.35384 | 138.62244 | 11329 ft | 430 kts | 63° |
| 2026-05-03 22:55 | 34.36950 | 138.65286 | 10814 ft | 423 kts | 52° |
| 2026-05-03 22:55 | 34.38910 | 138.67879 | 10641 ft | 402 kts | 39° |
| 2026-05-03 22:56 | 34.41107 | 138.69888 | 10486 ft | 381 kts | 27° |
| 2026-05-03 22:56 | 34.43469 | 138.71329 | 10281 ft | 362 kts | 15° |
| 2026-05-03 22:56 | 34.45842 | 138.72200 | 10128 ft | 341 kts | 4° |
| 2026-05-03 22:56 | 34.48141 | 138.72813 | 10046 ft | 328 kts | 5° |
| 2026-05-03 22:57 | 34.50344 | 138.73428 | 9985 ft | 314 kts | 2° |
| 2026-05-03 22:57 | 34.52499 | 138.73927 | 9714 ft | 309 kts | 0° |
| 2026-05-03 22:57 | 34.54663 | 138.74348 | 9342 ft | 309 kts | 359° |
| 2026-05-03 22:57 | 34.56810 | 138.74699 | 8981 ft | 303 kts | 351° |
| 2026-05-03 22:58 | 34.58802 | 138.74312 | 8638 ft | 275 kts | 326° |
| 2026-05-03 22:58 | 34.60321 | 138.73082 | 8354 ft | 244 kts | 299° |
| 2026-05-03 22:58 | 34.61246 | 138.71399 | 8051 ft | 232 kts | 289° |
| 2026-05-03 22:58 | 34.62036 | 138.69708 | 7747 ft | 229 kts | 288° |
| 2026-05-03 22:59 | 34.62779 | 138.67982 | 7449 ft | 226 kts | 287° |
| 2026-05-03 22:59 | 34.63487 | 138.66203 | 7148 ft | 234 kts | 285° |
| 2026-05-03 22:59 | 34.64167 | 138.64386 | 6833 ft | 233 kts | 285° |
| 2026-05-03 22:59 | 34.64826 | 138.62566 | 6520 ft | 232 kts | 285° |
| 2026-05-03 23:00 | 34.65476 | 138.60733 | 6206 ft | 231 kts | 284° |
| 2026-05-03 23:00 | 34.66107 | 138.58923 | 5897 ft | 230 kts | 285° |
| 2026-05-03 23:00 | 34.66739 | 138.57095 | 5593 ft | 229 kts | 285° |
| 2026-05-03 23:00 | 34.67355 | 138.55290 | 5291 ft | 228 kts | 285° |
| 2026-05-03 23:01 | 34.67955 | 138.53528 | 5158 ft | 219 kts | 285° |
| 2026-05-03 23:01 | 34.68527 | 138.51842 | 5102 ft | 207 kts | 285° |
| 2026-05-03 23:01 | 34.69074 | 138.50215 | 5026 ft | 198 kts | 285° |
| 2026-05-03 23:01 | 34.69581 | 138.48703 | 4962 ft | 189 kts | 285° |
| 2026-05-03 23:02 | 34.70077 | 138.47226 | 4874 ft | 181 kts | 284° |
| 2026-05-03 23:02 | 34.70536 | 138.45869 | 4744 ft | 164 kts | 283° |
| 2026-05-03 23:02 | 34.70959 | 138.44608 | 4548 ft | 150 kts | 284° |
| 2026-05-03 23:02 | 34.71341 | 138.43475 | 4366 ft | 138 kts | 284° |
| 2026-05-03 23:03 | 34.71717 | 138.42346 | 4201 ft | 149 kts | 284° |
| 2026-05-03 23:03 | 34.72119 | 138.41164 | 4004 ft | 148 kts | 285° |
| 2026-05-03 23:03 | 34.72515 | 138.39995 | 3813 ft | 148 kts | 285° |
| 2026-05-03 23:03 | 34.72909 | 138.38829 | 3617 ft | 148 kts | 286° |
| 2026-05-03 23:04 | 34.73305 | 138.37657 | 3422 ft | 148 kts | 287° |
| 2026-05-03 23:04 | 34.73613 | 138.36743 | 3264 ft | 147 kts | 287° |
| 2026-05-03 23:04 | 34.74008 | 138.35571 | 3067 ft | 148 kts | 288° |
| 2026-05-03 23:04 | 34.74403 | 138.34399 | 2874 ft | 148 kts | 287° |
| 2026-05-03 23:05 | 34.74795 | 138.33223 | 2682 ft | 147 kts | 288° |
| 2026-05-03 23:05 | 34.75188 | 138.32056 | 2489 ft | 149 kts | 289° |
| 2026-05-03 23:05 | 34.75584 | 138.30888 | 2298 ft | 145 kts | 289° |
| 2026-05-03 23:05 | 34.75951 | 138.29796 | 2102 ft | 123 kts | 289° |
| 2026-05-03 23:06 | 34.76291 | 138.28783 | 1952 ft | 128 kts | 289° |
| 2026-05-03 23:06 | 34.76620 | 138.27808 | 1773 ft | 125 kts | 288° |
| 2026-05-03 23:06 | 34.76957 | 138.26805 | 1601 ft | 126 kts | 289° |
| 2026-05-03 23:06 | 34.77295 | 138.25798 | 1430 ft | 127 kts | 289° |
| 2026-05-03 23:07 | 34.77639 | 138.24777 | 1259 ft | 128 kts | 288° |
| 2026-05-03 23:07 | 34.77982 | 138.23753 | 1086 ft | 129 kts | 288° |
| 2026-05-03 23:07 | 34.78332 | 138.22713 | 888 ft | 131 kts | 289° |
| 2026-05-03 23:07 | 34.78696 | 138.21684 | 778 ft | 131 kts | 288° |
| 2026-05-03 23:08 | 34.79037 | 138.20639 | 588 ft | 133 kts | 288° |
| 2026-05-03 23:08 | 34.79388 | 138.19588 | 450 ft | 123 kts | 287° |
| 2026-05-03 23:08 | 34.79670 | 138.18716 | 446 ft | 93 kts | 294° |
| 2026-05-03 23:08 | 34.79861 | 138.18149 | 446 ft | 48 kts | 292° |
| 2026-05-03 23:09 | 34.79945 | 138.17905 | 446 ft | 25 kts | 292° |
| 2026-05-03 23:09 | 34.79983 | 138.17705 | 446 ft | 19 kts | 244° |
| 2026-05-03 23:09 | 34.79861 | 138.17658 | 446 ft | 17 kts | 143° |
| 2026-05-03 23:09 | 34.79809 | 138.17778 | 446 ft | 16 kts | 111° |
| 2026-05-03 23:10 | 34.79767 | 138.17902 | 446 ft | 13 kts | 114° |
| 2026-05-03 23:10 | 34.79724 | 138.18007 | 446 ft | 11 kts | 151° |
| 2026-05-03 23:10 | 34.79649 | 138.17979 | 446 ft | 9 kts | 202° |
| 2026-05-03 23:10 | 34.79612 | 138.17961 | 446 ft | 1 kts | 202° |
| 2026-05-03 23:11 | 34.79610 | 138.17960 | 446 ft | 0 kts | 202° |